Time;durP1;ratioP1;P1;durP2;ratioP2;P2;SDS_P1;SDS_P2;PMS_P1;PMS_P2;Temp;Humidity;BMP_temperature;BMP_pressure;BME280_temperature;BME280_humidity;BME280_pressure;Samples;Min_cycle;Max_cycle;Signal;HPM_P1;HPM_P2
2022/01/09 00:00:29;;;;;;;7.88;3.63;;;;;;;;;;5033971;28;20002;-85
2022/01/09 00:02:55;;;;;;;9.05;2.70;;;;;;;;;;5034281;28;20018;-86
2022/01/09 00:05:24;;;;;;;6.65;2.38;;;;;;;;;;5036452;28;20085;-83
2022/01/09 00:07:50;;;;;;;6.15;2.33;;;;;;;;;;5030317;28;20026;-82
2022/01/09 00:10:15;;;;;;;5.35;2.60;;;;;;;;;;5046680;28;20028;-85
2022/01/09 00:12:41;;;;;;;7.32;2.38;;;;;;;;;;5048198;28;20013;-84
2022/01/09 00:15:06;;;;;;;7.57;2.20;;;;;;;;;;5045329;28;20044;-83
2022/01/09 00:17:32;;;;;;;6.50;2.22;;;;;;;;;;5026458;28;20520;-84
2022/01/09 00:19:58;;;;;;;8.70;2.78;;;;;;;;;;5027550;28;20032;-84
2022/01/09 00:25:24;;;;;;;4.28;2.10;;;;;;;;;;4963216;29;20031;-84
2022/01/09 00:27:52;;;;;;;3.70;1.77;;;;;;;;;;5014027;28;20036;-84
2022/01/09 00:30:21;;;;;;;9.30;1.93;;;;;;;;;;5028420;28;20488;-83
2022/01/09 00:32:47;;;;;;;5.60;2.30;;;;;;;;;;5028020;28;20044;-83
2022/01/09 00:35:13;;;;;;;5.72;1.70;;;;;;;;;;5053979;28;20018;-86
2022/01/09 00:37:41;;;;;;;4.18;1.70;;;;;;;;;;5036019;28;20014;-85
2022/01/09 00:40:08;;;;;;;6.20;1.73;;;;;;;;;;5035769;28;20028;-86
2022/01/09 00:42:33;;;;;;;6.25;1.52;;;;;;;;;;5033737;28;20025;-85
2022/01/09 00:45:02;;;;;;;5.57;1.63;;;;;;;;;;5050406;28;20024;-87
2022/01/09 00:47:31;;;;;;;4.88;2.15;;;;;;;;;;5050805;28;20112;-86
2022/01/09 00:49:59;;;;;;;5.75;2.10;;;;;;;;;;5037288;28;20053;-84
2022/01/09 00:52:24;;;;;;;2.78;1.35;;;;;;;;;;5038026;28;20017;-83
2022/01/09 00:54:55;;;;;;;3.40;1.40;;;;;;;;;;5054721;28;20056;-85
2022/01/09 00:57:24;;;;;;;7.45;1.77;;;;;;;;;;5056574;28;20085;-85
2022/01/09 00:59:53;;;;;;;4.07;1.40;;;;;;;;;;5038980;28;20068;-85
2022/01/09 01:02:24;;;;;;;5.90;1.63;;;;;;;;;;5039327;28;20040;-85
2022/01/09 01:04:52;;;;;;;4.28;1.58;;;;;;;;;;5040375;28;20009;-84
2022/01/09 01:07:23;;;;;;;3.83;1.38;;;;;;;;;;5041122;28;20017;-85
2022/01/09 01:09:54;;;;;;;3.70;1.60;;;;;;;;;;5041053;28;20020;-85
2022/01/09 01:12:22;;;;;;;3.75;1.50;;;;;;;;;;5060415;28;20014;-84
2022/01/09 01:14:51;;;;;;;4.45;1.35;;;;;;;;;;5057690;28;20020;-88
2022/01/09 01:17:17;;;;;;;3.25;1.52;;;;;;;;;;5040728;28;20022;-86
2022/01/09 01:19:45;;;;;;;2.97;1.38;;;;;;;;;;5037101;28;20021;-85
2022/01/09 01:22:11;;;;;;;7.57;1.40;;;;;;;;;;5036334;28;20033;-84
2022/01/09 01:24:38;;;;;;;3.97;1.70;;;;;;;;;;5036037;28;20041;-85
2022/01/09 01:27:07;;;;;;;4.82;1.25;;;;;;;;;;5053266;28;20028;-86
2022/01/09 01:29:34;;;;;;;3.85;1.73;;;;;;;;;;5053909;28;20033;-86
2022/01/09 01:31:59;;;;;;;3.42;1.50;;;;;;;;;;5036431;28;20048;-85
2022/01/09 01:34:27;;;;;;;4.15;1.33;;;;;;;;;;5053627;28;20021;-87
2022/01/09 01:36:52;;;;;;;6.43;1.20;;;;;;;;;;5034458;28;20030;-84
2022/01/09 01:39:18;;;;;;;4.57;1.88;;;;;;;;;;5049390;28;20028;-85
2022/01/09 01:41:43;;;;;;;5.05;1.30;;;;;;;;;;5054982;28;20114;-87
2022/01/09 01:44:13;;;;;;;5.03;1.60;;;;;;;;;;5038859;28;20022;-87
2022/01/09 01:46:39;;;;;;;4.10;1.48;;;;;;;;;;5037890;28;20049;-85
2022/01/09 01:49:05;;;;;;;3.00;1.30;;;;;;;;;;5037648;28;20101;-87
2022/01/09 01:51:33;;;;;;;3.05;1.30;;;;;;;;;;5037728;28;19998;-86
2022/01/09 01:53:59;;;;;;;5.88;1.27;;;;;;;;;;5037862;28;20018;-84
2022/01/09 01:56:25;;;;;;;5.03;1.25;;;;;;;;;;5037708;28;20092;-86
2022/01/09 01:58:51;;;;;;;5.75;1.70;;;;;;;;;;5051454;28;20480;-84
2022/01/09 02:01:19;;;;;;;4.15;1.55;;;;;;;;;;5052262;28;20025;-84
2022/01/09 02:04:02;;;;;;;3.83;1.50;;;;;;;;;;5035420;28;20032;-84
2022/01/09 02:06:27;;;;;;;3.47;1.65;;;;;;;;;;5033200;28;20087;-83
2022/01/09 02:09:02;;;;;;;3.63;1.40;;;;;;;;;;5044062;28;20017;-82
2022/01/09 02:11:34;;;;;;;3.55;1.33;;;;;;;;;;5052027;28;20013;-86
2022/01/09 02:14:02;;;;;;;7.10;1.48;;;;;;;;;;5051036;28;20013;-84
2022/01/09 02:16:28;;;;;;;3.00;1.30;;;;;;;;;;5031178;28;20029;-83
2022/01/09 02:18:54;;;;;;;3.80;1.58;;;;;;;;;;5032506;28;20077;-83
2022/01/09 02:21:22;;;;;;;2.97;1.30;;;;;;;;;;5032870;28;20025;-84
2022/01/09 02:23:54;;;;;;;2.33;1.20;;;;;;;;;;5048870;28;20026;-83
2022/01/09 02:26:21;;;;;;;3.85;1.80;;;;;;;;;;5047409;28;20024;-85
2022/01/09 02:28:56;;;;;;;3.83;1.40;;;;;;;;;;5038549;28;20009;-86
2022/01/09 02:31:22;;;;;;;4.38;1.42;;;;;;;;;;5039030;28;20021;-86
2022/01/09 02:33:52;;;;;;;3.70;1.17;;;;;;;;;;5054881;28;20030;-86
2022/01/09 02:36:26;;;;;;;4.40;1.35;;;;;;;;;;5037253;28;20052;-86
2022/01/09 02:38:55;;;;;;;3.95;1.75;;;;;;;;;;5054979;28;20033;-87
2022/01/09 02:41:21;;;;;;;;;;;;;;;;;;5038978;28;20021;-87
2022/01/09 02:44:11;;;;;;;2.88;1.20;;;;;;;;;;5038953;28;19985;-87
2022/01/09 02:47:05;;;;;;;5.05;1.70;;;;;;;;;;5037395;28;20056;-88
2022/01/09 02:49:33;;;;;;;4.00;1.27;;;;;;;;;;5038248;28;20029;-88
2022/01/09 02:52:09;;;;;;;4.25;1.63;;;;;;;;;;5038104;28;20064;-88
2022/01/09 02:57:22;;;;;;;3.88;1.48;;;;;;;;;;5056729;28;20024;-88
2022/01/09 03:00:01;;;;;;;;;;;;;;;;;;;;;
2022/01/09 03:02:31;;;;;;;5.70;1.35;;;;;;;;;;5057354;28;20037;-88
2022/01/09 03:04:57;;;;;;;3.80;1.70;;;;;;;;;;5039315;28;20021;-88
2022/01/09 03:07:29;;;;;;;4.25;1.85;;;;;;;;;;5055688;28;20116;-87
2022/01/09 03:09:55;;;;;;;3.97;1.55;;;;;;;;;;5038273;28;20021;-86
2022/01/09 03:12:24;;;;;;;3.60;1.73;;;;;;;;;;5030185;28;20082;-84
2022/01/09 03:14:54;;;;;;;3.35;1.42;;;;;;;;;;5033351;28;20059;-84
2022/01/09 03:17:23;;;;;;;3.80;1.80;;;;;;;;;;5032660;28;20017;-87
2022/01/09 03:19:52;;;;;;;5.47;2.00;;;;;;;;;;5035735;28;20077;-87
2022/01/09 03:22:23;;;;;;;6.18;1.52;;;;;;;;;;5038560;28;20021;-88
2022/01/09 03:24:56;;;;;;;3.90;1.80;;;;;;;;;;5039093;28;20029;-89
2022/01/09 03:27:24;;;;;;;5.80;1.60;;;;;;;;;;5038662;28;20018;-90
2022/01/09 03:29:52;;;;;;;3.17;1.43;;;;;;;;;;5037320;28;20032;-89
2022/01/09 03:32:23;;;;;;;4.50;1.77;;;;;;;;;;5035646;28;20278;-87
2022/01/09 03:34:49;;;;;;;2.85;1.70;;;;;;;;;;5037594;28;20065;-88
2022/01/09 03:37:21;;;;;;;3.00;1.42;;;;;;;;;;5054053;28;20021;-88
2022/01/09 03:39:50;;;;;;;5.15;1.65;;;;;;;;;;5037595;28;20021;-88
2022/01/09 03:42:18;;;;;;;3.92;1.60;;;;;;;;;;5036721;28;20025;-86
2022/01/09 03:44:43;;;;;;;4.23;1.57;;;;;;;;;;5038351;28;20025;-86
2022/01/09 03:47:12;;;;;;;4.03;2.05;;;;;;;;;;5038680;28;20472;-87
2022/01/09 03:49:45;;;;;;;6.20;1.73;;;;;;;;;;5037853;28;20043;-87
2022/01/09 03:52:10;;;;;;;5.20;1.88;;;;;;;;;;5053436;28;20044;-86
2022/01/09 03:54:47;;;;;;;5.07;1.80;;;;;;;;;;5030883;28;20077;-86
2022/01/09 03:57:12;;;;;;;4.13;1.85;;;;;;;;;;5026708;28;20014;-82
2022/01/09 03:59:38;;;;;;;4.13;1.75;;;;;;;;;;5046728;28;20023;-83
2022/01/09 04:02:03;;;;;;;5.53;1.67;;;;;;;;;;5033141;28;20029;-83
2022/01/09 04:04:31;;;;;;;4.00;2.00;;;;;;;;;;5034211;28;20032;-84
2022/01/09 04:06:57;;;;;;;3.80;1.83;;;;;;;;;;5058295;28;20032;-85
2022/01/09 04:09:38;;;;;;;4.55;2.08;;;;;;;;;;5056329;28;20038;-84
2022/01/09 04:12:14;;;;;;;3.38;1.60;;;;;;;;;;5037080;28;20025;-83
2022/01/09 04:14:39;;;;;;;4.25;1.67;;;;;;;;;;5050564;28;20018;-82
2022/01/09 04:17:07;;;;;;;4.22;1.70;;;;;;;;;;5034923;28;20069;-85
2022/01/09 04:19:33;;;;;;;5.05;2.08;;;;;;;;;;5053700;28;20028;-86
2022/01/09 04:22:01;;;;;;;4.55;1.90;;;;;;;;;;5052339;28;20021;-84
2022/01/09 04:24:27;;;;;;;4.07;1.67;;;;;;;;;;5040640;28;20113;-85
2022/01/09 04:26:55;;;;;;;4.25;1.58;;;;;;;;;;5041905;28;20025;-86
2022/01/09 04:29:20;;;;;;;2.55;1.33;;;;;;;;;;5039444;28;20056;-85
2022/01/09 04:31:56;;;;;;;3.42;1.85;;;;;;;;;;5055486;28;20025;-87
2022/01/09 04:34:25;;;;;;;3.20;1.52;;;;;;;;;;5054094;28;20041;-89
2022/01/09 04:36:50;;;;;;;;;;;;;;;;;;5042008;28;20028;-89
2022/01/09 04:39:16;;;;;;;3.35;1.60;;;;;;;;;;5041483;28;19913;-90
2022/01/09 04:41:44;;;;;;;4.55;1.58;;;;;;;;;;5041493;28;20164;-89
2022/01/09 04:44:15;;;;;;;4.20;1.67;;;;;;;;;;5039179;28;20443;-87
2022/01/09 04:57:12;;;;;;;5.10;1.90;;;;;;;;;;6103335;22;20016;-88
2022/01/09 05:12:39;;;;;;;3.60;1.50;;;;;;;;;;5679251;22;20057;-87
2022/01/09 05:17:43;;;;;;;3.25;1.55;;;;;;;;;;5206095;23;20036;-85
2022/01/09 05:20:11;;;;;;;4.80;1.83;;;;;;;;;;5613201;22;20016;-86
2022/01/09 05:27:50;;;;;;;3.28;1.75;;;;;;;;;;5226493;23;20057;-85
2022/01/09 05:30:16;;;;;;;2.95;1.40;;;;;;;;;;5061796;28;20044;-85
2022/01/09 05:32:44;;;;;;;3.22;1.40;;;;;;;;;;5062059;28;20088;-84
2022/01/09 05:35:11;;;;;;;3.97;1.63;;;;;;;;;;5079729;28;20001;-84
2022/01/09 05:40:19;;;;;;;2.72;1.52;;;;;;;;;;5060024;23;20108;-85
2022/01/09 05:42:54;;;;;;;4.13;1.50;;;;;;;;;;5182822;23;20123;-85
2022/01/09 05:45:23;;;;;;;3.35;1.50;;;;;;;;;;5104279;23;20049;-87
2022/01/09 05:47:49;;;;;;;2.67;1.15;;;;;;;;;;5023340;28;20006;-86
2022/01/09 05:50:24;;;;;;;2.92;1.40;;;;;;;;;;5401182;22;21175;-86
2022/01/09 05:52:52;;;;;;;2.42;1.20;;;;;;;;;;5371300;23;20061;-85
2022/01/09 05:55:18;;;;;;;4.55;1.38;;;;;;;;;;5036435;28;20053;-84
2022/01/09 05:57:55;;;;;;;2.63;1.35;;;;;;;;;;5062212;22;20041;-85
2022/01/09 06:00:23;;;;;;;2.83;1.17;;;;;;;;;;5065442;22;20118;-84
2022/01/09 06:02:49;;;;;;;4.65;1.25;;;;;;;;;;5056302;28;20085;-85
2022/01/09 06:05:26;;;;;;;2.15;1.00;;;;;;;;;;5040121;28;20010;-84
2022/01/09 06:07:55;;;;;;;2.38;1.00;;;;;;;;;;5069149;28;20017;-84
2022/01/09 06:10:22;;;;;;;;;;;;;;;;;;5078417;28;20052;-86
2022/01/09 06:17:58;;;;;;;1.90;0.80;;;;;;;;;;6086440;22;20016;-86
2022/01/09 06:20:33;;;;;;;4.38;1.13;;;;;;;;;;5354332;23;20046;-86
2022/01/09 06:28:12;;;;;;;3.00;1.30;;;;;;;;;;5628986;22;20094;-85
2022/01/09 06:30:37;;;;;;;3.22;1.35;;;;;;;;;;5054157;28;20347;-85
2022/01/09 06:33:14;;;;;;;3.88;0.80;;;;;;;;;;5056069;28;20036;-86
2022/01/09 06:35:42;;;;;;;2.42;1.20;;;;;;;;;;5057744;28;20025;-86
2022/01/09 06:43:14;;;;;;;2.63;1.10;;;;;;;;;;5438473;22;20042;-85
2022/01/09 07:50:16;;;;;;;1.92;0.50;;;;;;;;;;5638819;22;20092;-86
2022/01/09 07:55:22;;;;;;;1.42;0.47;;;;;;;;;;5552213;22;20060;-82
2022/01/09 07:57:51;;;;;;;0.95;0.50;;;;;;;;;;5041063;28;20021;-83
2022/01/09 08:00:29;;;;;;;0.95;0.50;;;;;;;;;;5077827;28;20017;-83
2022/01/09 08:02:57;;;;;;;1.15;0.50;;;;;;;;;;5057522;28;20017;-82
2022/01/09 08:05:26;;;;;;;0.90;0.50;;;;;;;;;;5075796;28;20050;-84
2022/01/09 08:08:03;;;;;;;1.73;0.70;;;;;;;;;;5057333;28;20017;-82
2022/01/09 08:10:38;;;;;;;0.88;0.45;;;;;;;;;;5184834;22;20027;-84
2022/01/09 08:13:05;;;;;;;;;;;;;;;;;;5010986;28;20082;-86
2022/01/09 08:15:34;;;;;;;1.10;0.52;;;;;;;;;;5003621;28;19894;-84
2022/01/09 08:23:12;;;;;;;1.48;0.63;;;;;;;;;;5122772;22;20091;-81
2022/01/09 08:25:37;;;;;;;1.67;0.63;;;;;;;;;;5020594;28;20048;-79
2022/01/09 08:28:03;;;;;;;5.43;2.05;;;;;;;;;;5049512;28;20468;-80
2022/01/09 08:30:28;;;;;;;6.47;1.42;;;;;;;;;;5058329;28;20468;-80
2022/01/09 08:32:53;;;;;;;1.90;0.82;;;;;;;;;;5041339;28;20121;-78
2022/01/09 08:35:22;;;;;;;1.95;0.90;;;;;;;;;;5051918;28;20025;-85
2022/01/09 08:37:51;;;;;;;2.58;1.17;;;;;;;;;;5063330;28;20031;-85
2022/01/09 08:40:21;;;;;;;3.95;1.65;;;;;;;;;;5062880;28;20024;-83
2022/01/09 08:42:48;;;;;;;7.55;3.35;;;;;;;;;;5061650;28;20052;-83
2022/01/09 08:45:14;;;;;;;10.80;5.18;;;;;;;;;;5079333;28;20048;-83
2022/01/09 08:47:41;;;;;;;4.78;2.50;;;;;;;;;;5126986;22;20049;-82
2022/01/09 08:50:08;;;;;;;7.13;3.47;;;;;;;;;;5040569;28;20034;-85
2022/01/09 08:52:34;;;;;;;3.22;1.38;;;;;;;;;;5040953;28;20003;-83
2022/01/09 08:55:02;;;;;;;3.38;1.02;;;;;;;;;;5040209;28;20070;-84
2022/01/09 09:02:37;;;;;;;1.80;0.95;;;;;;;;;;4980505;28;20043;-83
2022/01/09 09:07:37;;;;;;;2.75;0.95;;;;;;;;;;5300328;23;20092;-81
2022/01/09 09:10:04;;;;;;;2.35;1.02;;;;;;;;;;5054735;28;20025;-81
2022/01/09 09:12:31;;;;;;;2.78;1.40;;;;;;;;;;5060153;28;20024;-79
2022/01/09 09:14:56;;;;;;;2.35;1.20;;;;;;;;;;5023317;28;20029;-79
2022/01/09 09:17:23;;;;;;;1.92;0.82;;;;;;;;;;5042038;28;20353;-80
2022/01/09 09:19:48;;;;;;;3.38;0.80;;;;;;;;;;5056385;28;20109;-80
2022/01/09 09:22:13;;;;;;;1.50;0.70;;;;;;;;;;5037751;28;20459;-77
2022/01/09 09:24:38;;;;;;;2.47;1.00;;;;;;;;;;5055210;28;20017;-78
2022/01/09 09:27:04;;;;;;;1.00;0.55;;;;;;;;;;5055963;28;20525;-78
2022/01/09 09:29:32;;;;;;;2.60;0.90;;;;;;;;;;5055379;28;20514;-76
2022/01/09 09:31:57;;;;;;;2.50;1.30;;;;;;;;;;5055080;28;20072;-78
2022/01/09 09:34:22;;;;;;;1.60;0.68;;;;;;;;;;5037272;28;20125;-79
2022/01/09 09:36:52;;;;;;;4.50;2.30;;;;;;;;;;5056588;28;20044;-78
2022/01/09 09:39:18;;;;;;;2.38;0.82;;;;;;;;;;5037762;28;20021;-80
2022/01/09 09:41:43;;;;;;;1.80;0.90;;;;;;;;;;5038155;28;20479;-80
2022/01/09 09:44:09;;;;;;;2.38;1.05;;;;;;;;;;5056719;28;20052;-81
2022/01/09 09:46:34;;;;;;;3.10;1.20;;;;;;;;;;5058772;28;20021;-78
2022/01/09 09:49:00;;;;;;;2.25;1.00;;;;;;;;;;5056202;28;20017;-79
2022/01/09 09:51:25;;;;;;;2.50;0.90;;;;;;;;;;5058605;28;20376;-79
2022/01/09 09:53:56;;;;;;;1.15;0.60;;;;;;;;;;5059639;28;20008;-80
2022/01/09 09:56:21;;;;;;;3.55;0.90;;;;;;;;;;5055764;28;20017;-79
2022/01/09 09:58:49;;;;;;;3.00;1.00;;;;;;;;;;5055398;28;20018;-79
2022/01/09 10:01:24;;;;;;;3.20;1.17;;;;;;;;;;5054808;28;20017;-78
2022/01/09 10:04:08;;;;;;;4.03;1.00;;;;;;;;;;5037096;28;20020;-80
2022/01/09 10:06:44;;;;;;;5.45;1.02;;;;;;;;;;5037864;28;20032;-79
2022/01/09 10:09:14;;;;;;;2.60;1.05;;;;;;;;;;5054144;28;20100;-79
2022/01/09 10:11:43;;;;;;;4.13;1.17;;;;;;;;;;5036242;28;20017;-79
2022/01/09 10:14:13;;;;;;;3.55;1.15;;;;;;;;;;5054594;28;20017;-79
2022/01/09 10:16:38;;;;;;;5.13;2.08;;;;;;;;;;5054620;28;20099;-79
2022/01/09 10:19:04;;;;;;;5.57;2.00;;;;;;;;;;5055467;28;20071;-82
2022/01/09 10:21:29;;;;;;;2.78;1.17;;;;;;;;;;5039637;28;20021;-79
2022/01/09 10:23:55;;;;;;;2.80;0.95;;;;;;;;;;5039618;28;20067;-80
2022/01/09 10:29:07;;;;;;;2.92;0.95;;;;;;;;;;5609924;22;20040;-88
2022/01/09 10:34:11;;;;;;;1.48;0.70;;;;;;;;;;5293747;22;20045;-85
2022/01/09 10:36:44;;;;;;;2.97;1.20;;;;;;;;;;5058325;28;20025;-86
2022/01/09 10:53:17;;;;;;;2.75;0.85;;;;;;;;;;5107155;27;20441;-85
2022/01/09 10:55:42;;;;;;;1.90;0.60;;;;;;;;;;5105843;28;20031;-83
2022/01/09 10:58:14;;;;;;;2.53;0.60;;;;;;;;;;5105821;28;20028;-84
2022/01/09 11:00:42;;;;;;;2.28;0.90;;;;;;;;;;5105254;28;20039;-84
2022/01/09 11:03:11;;;;;;;1.45;0.68;;;;;;;;;;5105334;28;20066;-85
2022/01/09 11:05:37;;;;;;;3.38;1.00;;;;;;;;;;5106892;28;20017;-86
2022/01/09 11:08:02;;;;;;;0.88;0.50;;;;;;;;;;5104709;28;20028;-83
2022/01/09 11:10:28;;;;;;;0.85;0.50;;;;;;;;;;5102026;28;20069;-83
2022/01/09 11:12:58;;;;;;;2.13;0.70;;;;;;;;;;5100954;28;20020;-83
2022/01/09 11:15:25;;;;;;;1.50;0.65;;;;;;;;;;5104160;28;20039;-84
2022/01/09 11:17:50;;;;;;;2.22;0.70;;;;;;;;;;5104411;28;20020;-83
2022/01/09 11:20:17;;;;;;;1.60;0.70;;;;;;;;;;5102562;28;20016;-84
2022/01/09 11:22:43;;;;;;;1.73;0.93;;;;;;;;;;5101664;28;20020;-82
2022/01/09 11:25:27;;;;;;;1.55;0.70;;;;;;;;;;5100417;28;20027;-84
2022/01/09 11:27:58;;;;;;;2.13;0.77;;;;;;;;;;5101850;28;20036;-84
2022/01/09 11:30:42;;;;;;;1.13;0.70;;;;;;;;;;5104229;28;20027;-84
2022/01/09 11:33:26;;;;;;;3.50;0.82;;;;;;;;;;5102084;28;20104;-84
2022/01/09 11:35:55;;;;;;;1.48;0.80;;;;;;;;;;5104261;28;20032;-84
2022/01/09 11:38:29;;;;;;;1.65;0.73;;;;;;;;;;5102733;28;20028;-82
2022/01/09 11:41:12;;;;;;;1.35;0.68;;;;;;;;;;5099998;28;20032;-85
2022/01/09 11:43:50;;;;;;;2.45;0.90;;;;;;;;;;5099675;28;20016;-83
2022/01/09 11:46:15;;;;;;;1.40;0.65;;;;;;;;;;5101174;28;20017;-83
2022/01/09 11:48:41;;;;;;;2.83;0.70;;;;;;;;;;5101392;28;20017;-82
2022/01/09 11:51:06;;;;;;;2.00;0.98;;;;;;;;;;5092296;28;20043;-83
2022/01/09 11:53:50;;;;;;;2.05;0.68;;;;;;;;;;5081823;28;20024;-83
2022/01/09 11:56:35;;;;;;;1.48;0.68;;;;;;;;;;5081905;28;20516;-83
2022/01/09 11:59:16;;;;;;;1.48;0.70;;;;;;;;;;5065887;28;20028;-83
2022/01/09 12:01:41;;;;;;;1.92;0.70;;;;;;;;;;5068015;28;20025;-83
2022/01/09 12:04:26;;;;;;;1.52;0.90;;;;;;;;;;5067807;28;20017;-83
2022/01/09 12:06:54;;;;;;;1.40;0.73;;;;;;;;;;5064481;28;20017;-83
2022/01/09 12:09:30;;;;;;;1.70;0.70;;;;;;;;;;5077196;28;20096;-83
2022/01/09 12:12:12;;;;;;;1.20;0.50;;;;;;;;;;5085415;28;20107;-83
2022/01/09 12:15:01;;;;;;;1.00;0.63;;;;;;;;;;5086792;28;20029;-83
2022/01/09 12:17:38;;;;;;;1.10;0.60;;;;;;;;;;5089785;28;20031;-86
2022/01/09 12:20:27;;;;;;;1.52;0.70;;;;;;;;;;5089055;28;20473;-84
2022/01/09 12:23:00;;;;;;;;;;;;;;;;;;5089092;28;20031;-83
2022/01/09 12:25:25;;;;;;;1.35;0.60;;;;;;;;;;5087252;28;19935;-84
2022/01/09 12:27:54;;;;;;;1.02;0.82;;;;;;;;;;5087050;28;20016;-83
2022/01/09 12:30:52;;;;;;;1.20;0.80;;;;;;;;;;5086520;28;20190;-83
2022/01/09 12:33:32;;;;;;;2.28;0.90;;;;;;;;;;5088047;28;20048;-83
2022/01/09 12:36:05;;;;;;;2.10;0.95;;;;;;;;;;5089472;28;20009;-83
2022/01/09 12:38:31;;;;;;;1.65;0.90;;;;;;;;;;5091301;28;20044;-83
2022/01/09 12:40:57;;;;;;;1.70;0.82;;;;;;;;;;5088326;28;20047;-84
2022/01/09 12:43:24;;;;;;;1.23;0.70;;;;;;;;;;5089502;28;20027;-84
2022/01/09 12:45:50;;;;;;;1.95;0.80;;;;;;;;;;5090581;28;20051;-84
2022/01/09 12:48:19;;;;;;;0.98;0.50;;;;;;;;;;5089997;28;20020;-84
2022/01/09 12:50:45;;;;;;;1.40;0.70;;;;;;;;;;5085597;28;20017;-83
2022/01/09 12:53:17;;;;;;;1.42;0.77;;;;;;;;;;5085082;28;20155;-84
2022/01/09 12:56:00;;;;;;;1.55;0.77;;;;;;;;;;5087704;28;20016;-82
2022/01/09 12:58:25;;;;;;;1.23;0.60;;;;;;;;;;5084365;28;20017;-81
2022/01/09 13:00:51;;;;;;;2.18;1.02;;;;;;;;;;5061292;28;20104;-81
2022/01/09 13:03:21;;;;;;;2.20;0.90;;;;;;;;;;5057495;28;20024;-81
2022/01/09 13:05:56;;;;;;;2.60;1.30;;;;;;;;;;5056187;28;20021;-82
2022/01/09 13:08:22;;;;;;;3.13;0.98;;;;;;;;;;5067657;28;20036;-81
2022/01/09 13:10:55;;;;;;;3.67;1.40;;;;;;;;;;5063080;28;20020;-81
2022/01/09 13:13:22;;;;;;;3.17;1.15;;;;;;;;;;5075341;28;20016;-82
2022/01/09 13:15:47;;;;;;;2.83;1.40;;;;;;;;;;5071158;28;20039;-81
2022/01/09 13:18:12;;;;;;;2.10;1.20;;;;;;;;;;5063923;28;20473;-82
2022/01/09 13:20:38;;;;;;;2.22;1.38;;;;;;;;;;5076792;28;20107;-83
2022/01/09 13:23:07;;;;;;;2.80;1.40;;;;;;;;;;5089621;28;20040;-84
2022/01/09 13:25:46;;;;;;;3.30;1.70;;;;;;;;;;5087984;28;20017;-83
2022/01/09 13:28:11;;;;;;;;;;;;;;;;;;5086622;28;20017;-83
2022/01/09 13:30:39;;;;;;;4.00;1.63;;;;;;;;;;5082856;28;19960;-84
2022/01/09 13:35:47;;;;;;;3.60;1.73;;;;;;;;;;5032421;28;20050;-84
2022/01/09 13:38:13;;;;;;;3.70;2.15;;;;;;;;;;5018541;28;20046;-84
2022/01/09 13:40:39;;;;;;;3.55;1.80;;;;;;;;;;5018582;28;20052;-84
2022/01/09 13:43:05;;;;;;;4.78;2.13;;;;;;;;;;5016278;28;20026;-83
2022/01/09 13:45:43;;;;;;;3.85;1.70;;;;;;;;;;5019321;28;20049;-84
2022/01/09 13:48:12;;;;;;;3.30;1.70;;;;;;;;;;5036138;28;20018;-84
2022/01/09 13:53:29;;;;;;;2.22;1.20;;;;;;;;;;5128230;23;20057;-84
2022/01/09 13:55:55;;;;;;;4.05;1.60;;;;;;;;;;5056111;28;20021;-85
2022/01/09 13:58:21;;;;;;;2.95;1.30;;;;;;;;;;5052264;28;20093;-83
2022/01/09 14:03:27;;;;;;;8.77;1.45;;;;;;;;;;5057168;23;20034;-84
2022/01/09 14:05:56;;;;;;;5.75;1.33;;;;;;;;;;5018905;28;20036;-84
2022/01/09 14:08:32;;;;;;;2.90;1.30;;;;;;;;;;5019407;28;20041;-84
2022/01/09 14:11:13;;;;;;;1.58;1.08;;;;;;;;;;5019203;28;20045;-86
2022/01/09 14:13:45;;;;;;;2.20;1.20;;;;;;;;;;5315666;23;20021;-86
2022/01/09 14:16:14;;;;;;;2.90;1.60;;;;;;;;;;5050742;23;20018;-84
2022/01/09 14:18:45;;;;;;;4.22;1.73;;;;;;;;;;5013944;28;20046;-83
2022/01/09 14:21:15;;;;;;;3.25;1.60;;;;;;;;;;5079735;23;20042;-86
2022/01/09 14:23:45;;;;;;;2.92;1.17;;;;;;;;;;5057186;23;20092;-85
2022/01/09 14:26:21;;;;;;;2.58;1.10;;;;;;;;;;5029881;28;20090;-83
2022/01/09 14:28:50;;;;;;;2.53;1.33;;;;;;;;;;5011355;28;20046;-82
2022/01/09 14:31:16;;;;;;;2.83;1.30;;;;;;;;;;4981381;28;20034;-83
2022/01/09 14:33:48;;;;;;;3.53;1.65;;;;;;;;;;4993872;28;20057;-83
2022/01/09 14:36:16;;;;;;;2.60;1.20;;;;;;;;;;4994965;28;20002;-84
2022/01/09 14:38:51;;;;;;;4.53;1.60;;;;;;;;;;4989719;28;20026;-84
2022/01/09 14:41:17;;;;;;;4.70;2.00;;;;;;;;;;4991660;28;20023;-82
2022/01/09 14:44:01;;;;;;;3.35;1.42;;;;;;;;;;4973328;28;20015;-82
2022/01/09 14:46:27;;;;;;;6.43;2.45;;;;;;;;;;4983279;28;20018;-82
2022/01/09 14:48:53;;;;;;;6.88;2.08;;;;;;;;;;4969683;28;20070;-82
2022/01/09 14:51:21;;;;;;;4.55;1.50;;;;;;;;;;4968494;28;20025;-81
2022/01/09 14:53:49;;;;;;;4.78;1.60;;;;;;;;;;4988086;28;20015;-82
2022/01/09 14:56:14;;;;;;;2.65;1.48;;;;;;;;;;4979127;28;20093;-81
2022/01/09 14:58:42;;;;;;;3.70;1.73;;;;;;;;;;4977094;28;20415;-81
2022/01/09 15:01:07;;;;;;;4.18;1.60;;;;;;;;;;4965279;28;20034;-81
2022/01/09 15:03:33;;;;;;;4.22;1.92;;;;;;;;;;4969400;28;20061;-81
2022/01/09 15:05:58;;;;;;;6.65;2.35;;;;;;;;;;4959883;28;20118;-82
2022/01/09 15:08:25;;;;;;;5.18;2.10;;;;;;;;;;4956905;28;20086;-81
2022/01/09 15:10:50;;;;;;;3.13;1.83;;;;;;;;;;4981171;28;20026;-82
2022/01/09 15:13:17;;;;;;;9.07;2.25;;;;;;;;;;4977658;28;20027;-81
2022/01/09 15:15:52;;;;;;;4.82;1.52;;;;;;;;;;4973890;28;20031;-81
2022/01/09 15:18:17;;;;;;;4.57;2.22;;;;;;;;;;4965676;28;20031;-81
2022/01/09 15:20:43;;;;;;;5.22;2.70;;;;;;;;;;4974260;28;20480;-80
2022/01/09 15:23:11;;;;;;;5.20;2.53;;;;;;;;;;4982398;28;20053;-80
2022/01/09 15:25:51;;;;;;;7.32;2.85;;;;;;;;;;4966262;28;20050;-82
2022/01/09 15:28:17;;;;;;;4.40;2.50;;;;;;;;;;4965643;28;20080;-82
2022/01/09 15:30:45;;;;;;;5.85;2.53;;;;;;;;;;4974279;28;20055;-82
2022/01/09 15:33:11;;;;;;;7.07;2.97;;;;;;;;;;4987508;28;20102;-81
2022/01/09 15:35:36;;;;;;;8.43;3.05;;;;;;;;;;4982654;28;20046;-81
2022/01/09 15:38:02;;;;;;;7.07;2.90;;;;;;;;;;4964737;28;20021;-81
2022/01/09 15:40:27;;;;;;;6.70;2.83;;;;;;;;;;4963367;28;20483;-81
2022/01/09 15:42:53;;;;;;;5.43;2.65;;;;;;;;;;4966646;28;20033;-81
2022/01/09 15:45:18;;;;;;;5.80;2.58;;;;;;;;;;4977784;28;20049;-83
2022/01/09 15:47:43;;;;;;;6.97;2.90;;;;;;;;;;4981422;28;20061;-81
2022/01/09 15:50:09;;;;;;;5.18;2.80;;;;;;;;;;4962616;28;20045;-81
2022/01/09 15:52:34;;;;;;;6.38;3.78;;;;;;;;;;4959908;28;20023;-81
2022/01/09 15:55:00;;;;;;;6.82;3.20;;;;;;;;;;4980365;28;20062;-81
2022/01/09 15:57:26;;;;;;;7.53;3.40;;;;;;;;;;4979866;28;20022;-81
2022/01/09 15:59:51;;;;;;;5.68;3.17;;;;;;;;;;4980761;28;20034;-82
2022/01/09 16:05:08;;;;;;;10.55;4.50;;;;;;;;;;4984958;28;20038;-82
2022/01/09 16:07:33;;;;;;;8.57;4.65;;;;;;;;;;4984869;28;20038;-82
2022/01/09 16:09:58;;;;;;;9.45;4.18;;;;;;;;;;4963980;28;20022;-81
2022/01/09 16:12:24;;;;;;;11.88;4.30;;;;;;;;;;4969909;28;20086;-82
2022/01/09 16:14:49;;;;;;;8.60;3.97;;;;;;;;;;4987230;28;20087;-82
2022/01/09 16:17:14;;;;;;;8.13;4.28;;;;;;;;;;4988139;28;20431;-82
2022/01/09 16:19:40;;;;;;;12.02;4.90;;;;;;;;;;4967852;28;20038;-81
2022/01/09 16:22:06;;;;;;;11.07;4.68;;;;;;;;;;4968397;28;20085;-82
2022/01/09 16:24:32;;;;;;;9.40;3.80;;;;;;;;;;4988556;28;20029;-82
2022/01/09 16:27:00;;;;;;;7.40;4.32;;;;;;;;;;4965143;28;20034;-82
2022/01/09 16:29:26;;;;;;;9.18;4.47;;;;;;;;;;4963945;28;20022;-81
2022/01/09 16:31:51;;;;;;;11.35;4.63;;;;;;;;;;4969215;28;20021;-82
2022/01/09 16:34:17;;;;;;;9.07;4.32;;;;;;;;;;4981250;28;20027;-81
2022/01/09 16:36:43;;;;;;;7.63;3.95;;;;;;;;;;4979863;28;20110;-82
2022/01/09 16:39:11;;;;;;;8.50;4.53;;;;;;;;;;4979328;28;20054;-82
2022/01/09 16:41:37;;;;;;;10.88;4.07;;;;;;;;;;4983827;28;20031;-81
2022/01/09 16:44:03;;;;;;;8.60;4.47;;;;;;;;;;4977918;28;20023;-82
2022/01/09 16:46:28;;;;;;;10.70;3.38;;;;;;;;;;4966497;29;20023;-83
2022/01/09 16:48:53;;;;;;;10.05;4.38;;;;;;;;;;4956263;29;20023;-83
2022/01/09 16:51:22;;;;;;;9.65;4.55;;;;;;;;;;5101678;23;20046;-84
2022/01/09 16:53:48;;;;;;;;;;;;;;;;;;5019301;28;20010;-84
2022/01/09 16:56:16;;;;;;;10.80;4.72;;;;;;;;;;5020140;28;19894;-85
2022/01/09 16:58:44;;;;;;;16.97;5.67;;;;;;;;;;5020415;28;20082;-85
2022/01/09 17:01:14;;;;;;;9.50;4.60;;;;;;;;;;5259316;23;20282;-85
2022/01/09 17:03:40;;;;;;;12.02;4.80;;;;;;;;;;4977209;28;20023;-84
2022/01/09 17:06:08;;;;;;;15.35;4.88;;;;;;;;;;4960560;29;20083;-84
2022/01/09 17:08:40;;;;;;;12.20;4.57;;;;;;;;;;4959980;29;20012;-84
2022/01/09 17:11:10;;;;;;;11.50;5.30;;;;;;;;;;4957256;29;20203;-84
2022/01/09 17:13:37;;;;;;;13.98;4.65;;;;;;;;;;4960698;29;20016;-83
2022/01/09 17:16:05;;;;;;;13.80;5.25;;;;;;;;;;4968115;28;20078;-83
2022/01/09 17:18:32;;;;;;;12.80;3.75;;;;;;;;;;4957619;29;20020;-83
2022/01/09 17:20:58;;;;;;;10.80;4.82;;;;;;;;;;4961207;29;20031;-84
2022/01/09 17:23:26;;;;;;;8.15;4.05;;;;;;;;;;4979407;28;20055;-85
2022/01/09 17:26:16;;;;;;;12.55;4.63;;;;;;;;;;4978848;28;20017;-85
2022/01/09 17:28:49;;;;;;;13.85;4.75;;;;;;;;;;4979473;28;20023;-87
2022/01/09 17:31:15;;;;;;;11.80;5.07;;;;;;;;;;5241873;23;20037;-84
2022/01/09 17:39:03;;;;;;;10.10;4.97;;;;;;;;;;5470654;23;20078;-85
2022/01/09 17:41:30;;;;;;;18.35;5.43;;;;;;;;;;5134296;23;20017;-83
2022/01/09 17:48:59;;;;;;;11.10;4.40;;;;;;;;;;5312587;23;21027;-86
2022/01/09 17:51:27;;;;;;;15.10;5.40;;;;;;;;;;4986900;28;20076;-87